Aviation Digital Data Service (ADDS)

Output produced by METARs form (0726 UTC 24 January 2019)
found at http://aviationweather.gov/metar/data/
 
KHUM 240534Z 2406/2506 32016G22KT P6SM OVC020 
     FM240800 32010KT P6SM SCT080 
     FM241100 33007KT P6SM FEW210 
     FM241800 VRB04KT P6SM SKC